Airfield :
LOGIN :

Register | Disclaimer

   EN    FR    IT 

 










Legend :    VFR   Marginal VFR   IFR   Intensive IFR   Very Intensive IFR
Visi :
Ceiling :
>= 8 km
>= 3000ft
5 to 8 km
1000 to 3000 ft
1500m to 5 km
500 to 1000 ft
800 to 1500m
200 to 500 ft
< 800m
< 200 ft
Symbols :   Thunderstorms  Fog  Heavy snow  Heavy precipitations  Wind > 20 kt
SIGMETs :     Misc.  Thunderstorms  Icing  Turbulence  Mountain Waves  Volcanic Ashes






- Airport Elevation : 196 ft
- IATA code : SDN


ENSD - Sandane , Anda

CURRENT METAR :
  • 281520Z 13005KT 070V200 CAVOK 03/M06 Q0988 RMK WIND 1138FT VRB05KT

EXPIRED METARs :
  • 281450Z VRB02KT CAVOK 03/M06 Q0988 RMK WIND 1138FT 08006KT
  • 281420Z 13006KT CAVOK 03/M06 Q0988 RMK WIND 1138FT 08005KT
  • 281350Z VRB02KT CAVOK 02/M04 Q0988 RMK WIND 1138FT 08005KT
  • 281320Z VRB01KT CAVOK 02/M03 Q0988 RMK WIND 1138FT 07006KT
  • 281250Z VRB02KT CAVOK 02/M04 Q0988 RMK WIND 1138FT 11004KT

TAF N/A



MET'MAP, your aeronautical weather chart ! - Copyright ORBIFLY December 2007 - Disclaimer

ORBIFLY MET'MAP TEAM :

Programming & Development : Alexandra Zaïnal
Concept & original design : Baudouin d'Aumeries
Assistance for programming : Marc-Olivier Méhu
Technical & hardware support : Manuel Goepfert

Contact : metmap@orbifly.com




SOURCES & CREDITS :

   NOAA